createdAt,value
2022-11-16T00:01:40.753Z,100.00
2022-11-16T00:04:11.884Z,100.00
2022-11-16T00:06:39.853Z,100.00
2022-11-16T00:09:28.670Z,100.00
2022-11-16T00:11:59.043Z,100.00
2022-11-16T00:14:28.170Z,100.00
2022-11-16T00:16:56.282Z,100.00
2022-11-16T00:19:24.539Z,100.00
2022-11-16T00:21:52.225Z,100.00
2022-11-16T00:24:21.587Z,100.00
2022-11-16T00:26:49.947Z,100.00
2022-11-16T00:29:20.542Z,100.00
2022-11-16T00:31:49.530Z,100.00
2022-11-16T00:34:18.359Z,100.00
2022-11-16T00:36:46.130Z,100.00
2022-11-16T00:39:14.150Z,100.00
2022-11-16T00:41:42.238Z,100.00
2022-11-16T00:44:10.259Z,100.00
2022-11-16T00:46:39.335Z,100.00
2022-11-16T00:49:07.348Z,100.00
2022-11-16T00:51:37.438Z,100.00
2022-11-16T00:54:06.599Z,100.00
2022-11-16T00:56:34.337Z,100.00
2022-11-16T00:59:01.956Z,100.00
2022-11-16T01:01:29.723Z,100.00
2022-11-16T01:03:58.793Z,100.00
2022-11-16T01:06:26.541Z,100.00
2022-11-16T01:08:54.318Z,100.00
2022-11-16T01:11:39.671Z,100.00
2022-11-16T01:14:09.436Z,100.00
2022-11-16T01:16:37.618Z,100.00
2022-11-16T01:19:07.198Z,100.00
2022-11-16T01:21:35.048Z,100.00
2022-11-16T01:24:03.008Z,100.00
2022-11-16T01:26:30.748Z,100.00
2022-11-16T01:28:59.334Z,100.00
2022-11-16T01:31:26.984Z,100.00
2022-11-16T01:33:55.437Z,100.00
2022-11-16T01:36:24.476Z,100.00
2022-11-16T01:38:52.155Z,100.00
2022-11-16T01:41:21.552Z,100.00
2022-11-16T01:43:55.047Z,100.00
2022-11-16T01:46:23.062Z,100.00
2022-11-16T01:48:53.240Z,100.00
2022-11-16T01:51:21.764Z,100.00
2022-11-16T01:53:51.002Z,100.00
2022-11-16T01:56:18.709Z,100.00
2022-11-16T01:58:46.810Z,100.00
2022-11-16T02:01:14.536Z,100.00
2022-11-16T02:03:42.503Z,100.00
2022-11-16T02:06:35.953Z,100.00
2022-11-16T02:09:35.408Z,100.00
2022-11-16T02:12:14.635Z,100.00
2022-11-16T02:14:53.421Z,100.00
2022-11-16T02:17:27.725Z,100.00
2022-11-16T02:20:20.610Z,100.00
2022-11-16T02:23:04.449Z,100.00
2022-11-16T02:25:39.142Z,100.00
2022-11-16T02:28:17.915Z,100.00
2022-11-16T02:30:50.353Z,100.00
2022-11-16T02:33:20.008Z,100.00
2022-11-16T02:35:50.099Z,100.00
2022-11-16T02:38:20.734Z,100.00
2022-11-16T02:40:51.063Z,100.00
2022-11-16T02:43:22.324Z,100.00
2022-11-16T02:45:52.864Z,100.00
2022-11-16T02:48:23.485Z,100.00
2022-11-16T02:50:52.719Z,100.00
2022-11-16T02:53:21.786Z,100.00
2022-11-16T02:55:49.502Z,100.00
2022-11-16T02:58:19.638Z,100.00
2022-11-16T03:00:52.338Z,100.00
2022-11-16T03:03:25.082Z,100.00
2022-11-16T03:05:54.961Z,100.00
2022-11-16T03:08:25.867Z,100.00
2022-11-16T03:11:13.819Z,100.00
2022-11-16T03:13:42.030Z,100.00
2022-11-16T03:16:14.748Z,100.00
2022-11-16T03:18:43.011Z,100.00
2022-11-16T03:21:17.292Z,100.00
2022-11-16T03:23:46.350Z,100.00
2022-11-16T03:26:16.704Z,100.00
2022-11-16T03:28:50.851Z,100.00
2022-11-16T03:31:25.542Z,100.00
2022-11-16T03:33:56.024Z,100.00
2022-11-16T03:36:27.695Z,100.00
2022-11-16T03:38:56.961Z,100.00
2022-11-16T03:41:25.141Z,100.00
2022-11-16T03:43:53.415Z,100.00
2022-11-16T03:46:22.503Z,100.00
2022-11-16T03:48:50.132Z,100.00
2022-11-16T03:51:17.806Z,100.00
2022-11-16T03:53:45.577Z,100.00
2022-11-16T03:56:13.275Z,100.00
2022-11-16T03:58:40.968Z,100.00
2022-11-16T04:01:08.693Z,100.00
2022-11-16T04:03:37.714Z,100.00
2022-11-16T04:06:23.171Z,100.00
2022-11-16T04:09:08.379Z,100.00
2022-11-16T04:11:54.744Z,100.00
2022-11-16T04:14:41.197Z,100.00
2022-11-16T04:17:29.490Z,100.00
2022-11-16T04:20:16.176Z,100.00
2022-11-16T04:23:04.280Z,100.00
2022-11-16T04:25:33.492Z,100.00
2022-11-16T04:28:16.377Z,100.00
2022-11-16T04:31:03.940Z,100.00
2022-11-16T04:33:49.708Z,100.00
2022-11-16T04:36:36.318Z,100.00
2022-11-16T04:39:04.488Z,100.00
2022-11-16T04:41:49.738Z,100.00
2022-11-16T04:44:17.514Z,100.00
2022-11-16T04:47:02.187Z,100.00
2022-11-16T04:49:29.877Z,100.00
2022-11-16T04:51:58.940Z,100.00
2022-11-16T04:54:26.686Z,100.00
2022-11-16T04:56:54.456Z,100.00
2022-11-16T04:59:22.235Z,100.00
2022-11-16T05:02:07.438Z,100.00
2022-11-16T05:04:35.510Z,100.00
2022-11-16T05:07:04.742Z,100.00
2022-11-16T05:09:32.405Z,100.00
2022-11-16T05:12:00.110Z,100.00
2022-11-16T05:14:27.816Z,100.00
2022-11-16T05:16:55.447Z,100.00
2022-11-16T05:19:40.706Z,100.00
2022-11-16T05:22:09.749Z,100.00
2022-11-16T05:24:37.457Z,100.00
2022-11-16T05:27:07.103Z,100.00
2022-11-16T05:29:34.820Z,100.00
2022-11-16T05:32:02.909Z,100.00
2022-11-16T05:34:31.307Z,100.00
2022-11-16T05:36:59.698Z,100.00
2022-11-16T05:39:29.023Z,100.00
2022-11-16T05:41:57.164Z,100.00
2022-11-16T05:44:25.236Z,100.00
2022-11-16T05:46:53.235Z,100.00
2022-11-16T05:49:21.085Z,100.00
2022-11-16T05:51:49.426Z,100.00
2022-11-16T05:54:18.821Z,100.00
2022-11-16T05:56:48.750Z,100.00
2022-11-16T05:59:18.142Z,100.00
2022-11-16T06:01:46.042Z,100.00
2022-11-16T06:04:14.364Z,100.00
2022-11-16T06:06:42.346Z,100.00
2022-11-16T06:09:11.570Z,100.00
2022-11-16T06:11:39.308Z,100.00
2022-11-16T06:14:08.569Z,100.00
2022-11-16T06:16:36.275Z,100.00
2022-11-16T06:19:04.015Z,100.00
2022-11-16T06:21:32.966Z,100.00
2022-11-16T06:24:02.585Z,100.00
2022-11-16T06:26:30.291Z,100.00
2022-11-16T06:28:57.970Z,100.00
2022-11-16T06:31:27.118Z,100.00
2022-11-16T06:33:54.868Z,100.00
2022-11-16T06:36:22.654Z,100.00
2022-11-16T06:38:50.889Z,100.00
2022-11-16T06:41:18.657Z,100.00
2022-11-16T06:43:46.423Z,100.00
2022-11-16T06:46:14.131Z,100.00
2022-11-16T06:48:43.258Z,100.00
2022-11-16T06:51:11.003Z,100.00
2022-11-16T06:53:38.753Z,100.00
2022-11-16T06:56:07.264Z,100.00
2022-11-16T06:58:35.366Z,100.00
2022-11-16T07:01:07.063Z,100.00
2022-11-16T07:03:34.881Z,100.00
2022-11-16T07:06:08.366Z,100.00
2022-11-16T07:08:36.555Z,100.00
2022-11-16T07:11:05.366Z,100.00
2022-11-16T07:13:33.716Z,100.00
2022-11-16T07:16:03.013Z,100.00
2022-11-16T07:18:30.943Z,100.00
2022-11-16T07:20:58.736Z,100.00
2022-11-16T07:23:28.871Z,100.00
2022-11-16T07:26:01.007Z,100.00
2022-11-16T07:28:28.966Z,100.00
2022-11-16T07:30:56.710Z,100.00
2022-11-16T07:33:24.444Z,100.00
2022-11-16T07:35:52.127Z,100.00
2022-11-16T07:38:19.835Z,100.00
2022-11-16T07:40:49.081Z,100.00
2022-11-16T07:43:16.756Z,100.00
2022-11-16T07:45:44.481Z,100.00
2022-11-16T07:48:12.129Z,100.00
2022-11-16T07:50:39.802Z,100.00
2022-11-16T07:53:07.470Z,100.00
2022-11-16T07:55:35.134Z,100.00
2022-11-16T07:58:04.142Z,100.00
2022-11-16T08:00:32.137Z,100.00
2022-11-16T08:02:59.808Z,100.00
2022-11-16T08:05:27.514Z,100.00
2022-11-16T08:07:55.154Z,100.00
2022-11-16T08:10:23.303Z,100.00
2022-11-16T08:12:51.101Z,100.00
2022-11-16T08:15:20.184Z,100.00
2022-11-16T08:17:48.023Z,100.00
2022-11-16T08:20:16.692Z,100.00
2022-11-16T08:22:45.121Z,100.00
2022-11-16T08:25:13.494Z,100.00
2022-11-16T08:27:41.658Z,100.00
2022-11-16T08:30:10.446Z,100.00
2022-11-16T08:32:41.234Z,100.00
2022-11-16T08:35:09.763Z,100.00
2022-11-16T08:37:37.423Z,100.00
2022-11-16T08:40:05.759Z,100.00
2022-11-16T08:42:33.382Z,100.00
2022-11-16T08:45:01.114Z,100.00
2022-11-16T08:47:28.824Z,100.00
2022-11-16T08:49:57.863Z,100.00
2022-11-16T08:52:25.706Z,100.00
2022-11-16T08:54:53.470Z,100.00
2022-11-16T08:57:21.160Z,100.00
2022-11-16T08:59:48.873Z,100.00
2022-11-16T09:02:16.592Z,100.00
2022-11-16T09:04:44.419Z,100.00
2022-11-16T09:07:13.774Z,100.00
2022-11-16T09:09:41.468Z,100.00
2022-11-16T09:12:09.289Z,100.00
2022-11-16T09:14:36.950Z,100.00
2022-11-16T09:17:04.666Z,100.00
2022-11-16T09:19:32.343Z,100.00
2022-11-16T09:22:00.027Z,100.00
2022-11-16T09:24:29.140Z,100.00
2022-11-16T09:26:57.575Z,100.00
2022-11-16T09:29:27.539Z,100.00
2022-11-16T09:31:55.356Z,100.00
2022-11-16T09:34:23.191Z,100.00
2022-11-16T09:36:50.847Z,100.00
2022-11-16T09:39:30.548Z,100.00
2022-11-16T09:42:11.147Z,100.00
2022-11-16T09:44:50.915Z,100.00
2022-11-16T09:47:21.745Z,100.00
2022-11-16T09:49:53.574Z,100.00
2022-11-16T09:52:27.752Z,100.00
2022-11-16T09:54:56.040Z,100.00
2022-11-16T09:57:29.009Z,100.00
2022-11-16T09:59:59.624Z,100.00
2022-11-16T10:02:29.550Z,100.00
2022-11-16T10:05:00.422Z,100.00
2022-11-16T10:07:32.033Z,100.00
2022-11-16T10:09:59.776Z,100.00
2022-11-16T10:12:34.620Z,100.00
2022-11-16T10:15:12.863Z,100.00
2022-11-16T10:18:14.162Z,100.00
2022-11-16T10:20:56.946Z,100.00
2022-11-16T10:23:33.234Z,100.00
2022-11-16T10:26:06.791Z,100.00
2022-11-16T10:29:00.733Z,100.00
2022-11-16T10:31:41.186Z,100.00
2022-11-16T10:34:09.702Z,100.00
2022-11-16T10:36:38.336Z,100.00
2022-11-16T10:39:11.157Z,100.00
2022-11-16T10:41:41.379Z,100.00
2022-11-16T10:44:16.242Z,100.00
2022-11-16T10:46:47.436Z,100.00
2022-11-16T10:49:19.063Z,100.00
2022-11-16T10:51:46.756Z,100.00
2022-11-16T10:54:14.535Z,100.00
2022-11-16T10:56:43.294Z,100.00
2022-11-16T10:59:14.043Z,100.00
2022-11-16T11:01:43.601Z,100.00
2022-11-16T11:04:17.230Z,100.00
2022-11-16T11:06:45.713Z,100.00
2022-11-16T11:09:22.059Z,100.00
2022-11-16T11:12:16.901Z,100.00
2022-11-16T11:14:59.841Z,100.00
2022-11-16T11:17:27.717Z,100.00
2022-11-16T11:20:00.536Z,100.00
2022-11-16T11:22:28.639Z,100.00
2022-11-16T11:24:56.416Z,100.00
2022-11-16T11:27:25.837Z,100.00
2022-11-16T11:29:55.132Z,100.00
2022-11-16T11:32:33.611Z,100.00
2022-11-16T11:35:01.921Z,100.00
2022-11-16T11:37:32.466Z,100.00
2022-11-16T11:40:18.614Z,100.00
2022-11-16T11:42:53.776Z,100.00
2022-11-16T11:45:22.535Z,100.00
2022-11-16T11:47:58.752Z,100.00
2022-11-16T11:50:36.912Z,100.00
2022-11-16T11:53:08.050Z,100.00
2022-11-16T11:55:35.890Z,100.00
2022-11-16T11:58:04.754Z,100.00
2022-11-16T12:00:37.931Z,100.00
2022-11-16T12:03:46.698Z,100.00
2022-11-16T12:06:20.853Z,100.00
2022-11-16T12:09:03.725Z,100.00
2022-11-16T12:11:38.019Z,100.00
2022-11-16T12:14:16.346Z,100.00
2022-11-16T12:16:47.349Z,100.00
2022-11-16T12:19:41.354Z,100.00
2022-11-16T12:22:17.275Z,100.00
2022-11-16T12:24:57.540Z,100.00
2022-11-16T12:27:36.984Z,100.00
2022-11-16T12:30:09.525Z,100.00
2022-11-16T12:32:44.949Z,100.00
2022-11-16T12:35:23.116Z,100.00
2022-11-16T12:37:57.476Z,100.00
2022-11-16T12:40:32.893Z,100.00
2022-11-16T12:43:05.163Z,100.00
2022-11-16T12:45:45.162Z,100.00
2022-11-16T12:48:51.142Z,100.00
2022-11-16T12:51:32.068Z,100.00
2022-11-16T12:54:12.214Z,100.00
2022-11-16T12:56:48.843Z,100.00
2022-11-16T12:59:25.718Z,100.00
2022-11-16T13:02:00.712Z,95.10
2022-11-16T13:04:31.544Z,98.78
2022-11-16T13:07:10.481Z,95.49
2022-11-16T13:09:40.995Z,95.52
2022-11-16T13:12:14.225Z,96.43
2022-11-16T13:14:44.793Z,92.41
2022-11-16T13:17:19.034Z,92.22
2022-11-16T13:19:50.579Z,97.25
2022-11-16T13:22:23.264Z,96.67
2022-11-16T13:24:55.646Z,98.51
2022-11-16T13:27:30.200Z,98.94
2022-11-16T13:30:00.718Z,97.29
2022-11-16T13:32:40.071Z,98.38
2022-11-16T13:35:13.970Z,97.56
2022-11-16T13:37:49.769Z,96.95
2022-11-16T13:40:31.243Z,97.51
2022-11-16T13:43:03.596Z,95.33
2022-11-16T13:45:36.217Z,95.50
2022-11-16T13:48:10.277Z,98.39
2022-11-16T13:50:39.270Z,97.07
2022-11-16T13:54:10.731Z,96.62
2022-11-16T13:56:02.736Z,95.28
2022-11-16T13:58:31.813Z,94.53
2022-11-16T14:01:04.369Z,96.17
2022-11-16T14:03:38.332Z,90.58
2022-11-16T14:06:08.535Z,96.11
2022-11-16T14:08:48.716Z,91.80
2022-11-16T14:11:32.029Z,92.07
2022-11-16T14:14:01.240Z,92.12
2022-11-16T14:16:43.204Z,92.01
2022-11-16T14:19:44.255Z,92.55
2022-11-16T14:22:17.512Z,91.47
2022-11-16T14:24:49.149Z,91.10
2022-11-16T14:27:30.310Z,91.49
2022-11-16T14:30:05.039Z,92.50
2022-11-16T14:32:38.305Z,91.50
2022-11-16T14:35:26.759Z,92.26
2022-11-16T14:37:58.625Z,89.89
2022-11-16T14:40:27.789Z,89.19
2022-11-16T14:45:49.933Z,91.23
2022-11-16T14:48:19.537Z,90.24
2022-11-16T14:50:49.582Z,91.71
2022-11-16T14:53:19.159Z,92.96
2022-11-16T14:55:48.376Z,91.32
2022-11-16T14:58:20.431Z,93.51
2022-11-16T15:00:54.931Z,92.25
2022-11-16T15:03:23.583Z,94.11
2022-11-16T15:05:51.422Z,94.30
2022-11-16T15:08:22.126Z,94.70
2022-11-16T15:10:52.715Z,95.50
2022-11-16T15:13:21.028Z,95.49
2022-11-16T15:15:50.154Z,96.40
2022-11-16T15:18:19.271Z,97.50
2022-11-16T15:20:51.471Z,98.30
2022-11-16T15:23:19.507Z,96.17
2022-11-16T15:25:52.705Z,94.04
2022-11-16T15:28:23.495Z,94.99
2022-11-16T15:30:53.085Z,94.28
2022-11-16T15:33:24.131Z,95.33
2022-11-16T15:35:53.896Z,94.84
2022-11-16T15:38:23.365Z,94.67
2022-11-16T15:40:52.996Z,95.34
2022-11-16T15:43:25.204Z,95.46
2022-11-16T15:45:52.801Z,95.60
2022-11-16T15:48:22.687Z,96.42
2022-11-16T15:51:02.987Z,97.26
2022-11-16T15:53:37.523Z,98.22
2022-11-16T15:56:06.974Z,98.27
2022-11-16T15:58:39.479Z,98.41
2022-11-16T16:01:07.922Z,99.13
2022-11-16T16:03:36.762Z,99.32
2022-11-16T16:06:05.603Z,99.31
2022-11-16T16:08:34.420Z,100.00
2022-11-16T16:11:10.437Z,99.33
2022-11-16T16:13:41.534Z,100.00
2022-11-16T16:16:26.146Z,100.00
2022-11-16T16:18:55.067Z,100.00
2022-11-16T16:21:22.957Z,100.00
2022-11-16T16:23:52.268Z,100.00
2022-11-16T16:26:19.970Z,100.00
2022-11-16T16:28:49.565Z,100.00
2022-11-16T16:31:18.352Z,100.00
2022-11-16T16:33:46.162Z,100.00
2022-11-16T16:36:15.370Z,100.00
2022-11-16T16:38:43.065Z,100.00
2022-11-16T16:41:22.667Z,100.00
2022-11-16T16:43:53.239Z,100.00
2022-11-16T16:46:21.667Z,100.00
2022-11-16T16:48:49.411Z,100.00
2022-11-16T16:51:17.060Z,100.00
2022-11-16T16:53:44.709Z,100.00
2022-11-16T16:56:16.061Z,100.00
2022-11-16T16:58:43.829Z,100.00
2022-11-16T17:01:13.166Z,100.00
2022-11-16T17:03:40.929Z,100.00
2022-11-16T17:06:08.756Z,100.00
2022-11-16T17:08:37.032Z,100.00
2022-11-16T17:11:05.341Z,100.00
2022-11-16T17:13:33.285Z,100.00
2022-11-16T17:16:05.354Z,100.00
2022-11-16T17:18:34.417Z,100.00
2022-11-16T17:21:05.276Z,100.00
2022-11-16T17:23:33.470Z,100.00
2022-11-16T17:26:04.877Z,100.00
2022-11-16T17:28:32.631Z,100.00
2022-11-16T17:31:18.275Z,100.00
2022-11-16T17:33:47.414Z,100.00
2022-11-16T17:36:15.336Z,100.00
2022-11-16T17:38:43.070Z,100.00
2022-11-16T17:41:12.693Z,100.00
2022-11-16T17:43:40.936Z,100.00
2022-11-16T17:46:09.941Z,100.00
2022-11-16T17:48:38.676Z,100.00
2022-11-16T17:51:07.881Z,100.00
2022-11-16T17:53:36.569Z,100.00
2022-11-16T17:56:04.938Z,100.00
2022-11-16T17:58:33.827Z,100.00
2022-11-16T18:01:01.859Z,100.00
2022-11-16T18:03:29.750Z,100.00
2022-11-16T18:06:04.869Z,100.00
2022-11-16T18:08:34.614Z,100.00
2022-11-16T18:11:06.878Z,100.00
2022-11-16T18:13:35.040Z,100.00
2022-11-16T18:16:07.201Z,100.00
2022-11-16T18:18:35.302Z,100.00
2022-11-16T18:21:03.009Z,100.00
2022-11-16T18:23:30.661Z,100.00
2022-11-16T18:25:59.605Z,100.00
2022-11-16T18:28:27.463Z,100.00
2022-11-16T18:31:03.229Z,100.00
2022-11-16T18:33:30.958Z,100.00
2022-11-16T18:35:58.916Z,100.00
2022-11-16T18:38:27.005Z,100.00
2022-11-16T18:41:07.163Z,100.00
2022-11-16T18:43:36.221Z,100.00
2022-11-16T18:46:04.481Z,100.00
2022-11-16T18:48:32.492Z,100.00
2022-11-16T18:51:00.811Z,100.00
2022-11-16T18:53:29.310Z,100.00
2022-11-16T18:55:58.268Z,100.00
2022-11-16T19:01:17.415Z,100.00
2022-11-16T19:03:45.443Z,100.00
2022-11-16T19:06:14.902Z,100.00
2022-11-16T19:08:43.598Z,100.00
2022-11-16T19:11:12.586Z,100.00
2022-11-16T19:13:43.549Z,100.00
2022-11-16T19:16:13.785Z,100.00
2022-11-16T19:18:41.607Z,100.00
2022-11-16T19:21:10.304Z,100.00
2022-11-16T19:23:38.348Z,100.00
2022-11-16T19:26:06.824Z,100.00
2022-11-16T19:28:36.918Z,100.00
2022-11-16T19:31:10.006Z,100.00
2022-11-16T19:33:38.279Z,100.00
2022-11-16T19:36:10.539Z,100.00
2022-11-16T19:38:38.218Z,100.00
2022-11-16T19:41:06.308Z,100.00
2022-11-16T19:43:34.716Z,100.00
2022-11-16T19:46:04.014Z,100.00
2022-11-16T19:48:33.836Z,100.00
2022-11-16T19:51:08.204Z,100.00
2022-11-16T19:53:36.662Z,100.00
2022-11-16T19:56:05.267Z,100.00
2022-11-16T19:58:33.354Z,100.00
2022-11-16T20:01:02.705Z,100.00
2022-11-16T20:03:31.102Z,100.00
2022-11-16T20:06:11.158Z,100.00
2022-11-16T20:08:39.941Z,100.00
2022-11-16T20:11:12.377Z,100.00
2022-11-16T20:13:40.129Z,100.00
2022-11-16T20:16:09.535Z,100.00
2022-11-16T20:18:37.451Z,100.00
2022-11-16T20:21:06.277Z,100.00
2022-11-16T20:23:36.102Z,100.00
2022-11-16T20:26:05.953Z,100.00
2022-11-16T20:28:37.158Z,100.00
2022-11-16T20:31:06.061Z,100.00
2022-11-16T20:33:34.719Z,100.00
2022-11-16T20:36:03.620Z,100.00
2022-11-16T20:38:33.582Z,100.00
2022-11-16T20:41:10.322Z,100.00
2022-11-16T20:43:39.305Z,100.00
2022-11-16T20:46:07.779Z,100.00
2022-11-16T20:48:35.539Z,100.00
2022-11-16T20:51:03.413Z,100.00
2022-11-16T20:53:31.174Z,100.00
2022-11-16T20:56:02.383Z,100.00
2022-11-16T20:58:31.979Z,100.00
2022-11-16T21:01:01.003Z,100.00
2022-11-16T21:03:28.763Z,100.00
2022-11-16T21:05:56.777Z,100.00
2022-11-16T21:08:25.231Z,100.00
2022-11-16T21:10:52.917Z,100.00
2022-11-16T21:13:38.842Z,100.00
2022-11-16T21:16:11.329Z,100.00
2022-11-16T21:18:39.488Z,100.00
2022-11-16T21:21:08.861Z,100.00
2022-11-16T21:23:37.572Z,100.00
2022-11-16T21:26:06.711Z,100.00
2022-11-16T21:28:34.707Z,100.00
2022-11-16T21:31:03.783Z,100.00
2022-11-16T21:33:33.754Z,100.00
2022-11-16T21:36:04.303Z,100.00
2022-11-16T21:38:32.591Z,100.00
2022-11-16T21:41:00.382Z,100.00
2022-11-16T21:43:28.128Z,100.00
2022-11-16T21:46:02.152Z,100.00
2022-11-16T21:48:30.064Z,100.00
2022-11-16T21:51:02.083Z,100.00
2022-11-16T21:53:30.109Z,100.00
2022-11-16T21:55:57.915Z,100.00
2022-11-16T21:58:25.778Z,100.00
2022-11-16T22:00:55.691Z,100.00
2022-11-16T22:03:23.684Z,100.00
2022-11-16T22:06:12.021Z,100.00
2022-11-16T22:08:41.646Z,100.00
2022-11-16T22:11:10.128Z,100.00
2022-11-16T22:13:38.400Z,100.00
2022-11-16T22:16:06.735Z,100.00
2022-11-16T22:18:35.230Z,100.00
2022-11-16T22:21:03.446Z,100.00
2022-11-16T22:23:31.384Z,100.00
2022-11-16T22:26:04.016Z,100.00
2022-11-16T22:28:32.216Z,100.00
2022-11-16T22:31:01.436Z,100.00
2022-11-16T22:33:32.090Z,100.00
2022-11-16T22:35:59.980Z,100.00
2022-11-16T22:38:28.030Z,100.00
2022-11-16T22:40:56.964Z,100.00
2022-11-16T22:43:27.711Z,100.00
2022-11-16T22:45:58.677Z,100.00
2022-11-16T22:48:31.263Z,100.00
2022-11-16T22:51:06.718Z,100.00
2022-11-16T22:53:35.361Z,100.00
2022-11-16T22:56:07.988Z,100.00
2022-11-16T22:58:39.745Z,100.00
2022-11-16T23:01:09.277Z,100.00
2022-11-16T23:03:37.774Z,100.00
2022-11-16T23:06:06.780Z,100.00
2022-11-16T23:08:35.200Z,100.00
2022-11-16T23:11:22.110Z,100.00
2022-11-16T23:14:09.515Z,100.00
2022-11-16T23:16:37.486Z,100.00
2022-11-16T23:19:25.249Z,100.00
2022-11-16T23:22:11.420Z,100.00
2022-11-16T23:24:58.794Z,100.00
2022-11-16T23:27:32.648Z,100.00
2022-11-16T23:30:06.667Z,100.00
2022-11-16T23:32:38.931Z,100.00
2022-11-16T23:35:07.426Z,100.00
2022-11-16T23:37:35.128Z,100.00
2022-11-16T23:40:02.840Z,100.00
2022-11-16T23:42:47.932Z,100.00
2022-11-16T23:45:17.245Z,100.00
2022-11-16T23:47:44.945Z,100.00
2022-11-16T23:50:12.619Z,100.00
2022-11-16T23:52:40.266Z,100.00
2022-11-16T23:55:08.834Z,100.00
2022-11-16T23:57:36.573Z,100.00
